WetterOnline ( http://www.wetteronline.de )

Wetter aktuell Trier

Aktuelles Wetter: Trier/Petrisberg (273m)

6-stündlich | Neueste Meldungen
Ortszeit Temperatur Wetter
So, 17.02. 7:00 -1.7° C Nebel
So, 17.02. 1:00 2.0° C wolkig
Sa, 16.02. 19:00 8.8° C wolkig
Sa, 16.02. 13:00 9.5° C leicht bewölkt
Sa, 16.02. 7:00 -1.7° C wolkenlos
Sa, 16.02. 1:00 2.4° C wolkenlos
Fr, 15.02. 19:00 9.5° C wolkenlos
Fr, 15.02. 13:00 9.9° C wolkenlos
Ortszeit Temperatur Wetter
So, 17.02. 10:00 -0.0° C Nebel
So, 17.02. 9:50 -0.0° C Nebel
So, 17.02. 9:40 -0.5° C Nebel
So, 17.02. 9:30 -1.0° C Nebel
So, 17.02. 9:20 -1.0° C Nebel
So, 17.02. 9:10 -1.3° C Nebel
So, 17.02. 9:00 -1.8° C Nebel
So, 17.02. 8:30 -1.3° C Nebel
So, 17.02. 8:00 -1.7° C Nebel
So, 17.02. 7:30 -1.9° C Nebel
So, 17.02. 7:00 -1.7° C Nebel
Ortszeit Relative Feuchte Sichtweite
So, 17.02. 7:00 97% 0.3 km
So, 17.02. 1:00 91% 15 km
Sa, 16.02. 19:00 66% 30 km
Sa, 16.02. 13:00 57% 40 km
Sa, 16.02. 7:00 96% 17 km
Sa, 16.02. 1:00 85% 50 km
Fr, 15.02. 19:00 58% 70 km
Fr, 15.02. 13:00 52% 60 km
Ortszeit Relative Feuchte Sichtweite
So, 17.02. 10:00 97% 0.2 km
So, 17.02. 9:50 97% -
So, 17.02. 9:40 97% -
So, 17.02. 9:30 98% 0.2 km
So, 17.02. 9:20 98% -
So, 17.02. 9:10 98% -
So, 17.02. 9:00 97% 0.3 km
So, 17.02. 8:30 98% 0.4 km
So, 17.02. 8:00 97% 0.5 km
So, 17.02. 7:30 97% 0.3 km
So, 17.02. 7:00 97% 0.3 km
Ortszeit Niederschlagsmenge Niederschlagsart
So, 17.02. 7:00 0.0 l/m2 in 12 Std. -
So, 17.02. 1:00 0.0 l/m2 in 6 Std. -
Sa, 16.02. 19:00 0.0 l/m2 in 12 Std. -
Sa, 16.02. 13:00 0.0 l/m2 in 6 Std. -
Sa, 16.02. 7:00 0.0 l/m2 in 12 Std. -
Sa, 16.02. 1:00 0.0 l/m2 in 6 Std. -
Fr, 15.02. 19:00 0.0 l/m2 in 12 Std. -
Fr, 15.02. 13:00 0.0 l/m2 in 6 Std. -
Ortszeit Niederschlagsmenge Niederschlagsart
So, 17.02. 10:00 0.0 l/m2 in 1 Std. -
So, 17.02. 9:50 keine Meldung -
So, 17.02. 9:40 keine Meldung -
So, 17.02. 9:30 0.0 l/m2 in 1 Std. -
So, 17.02. 9:20 keine Meldung -
So, 17.02. 9:10 keine Meldung -
So, 17.02. 9:00 0.0 l/m2 in 1 Std. -
So, 17.02. 8:30 0.0 l/m2 in 1 Std. -
So, 17.02. 8:00 0.0 l/m2 in 1 Std. -
So, 17.02. 7:30 0.0 l/m2 in 1 Std. -
So, 17.02. 7:00 0.0 l/m2 in 1 Std. -
Ortszeit Stärke Spitze Richtung
km/h Bft. km/h Grad Sektor
So, 17.02. 7:00 6 1 11 360° N
So, 17.02. 1:00 7 2 11 20° N
Sa, 16.02. 19:00 7 2 14 110° O
Sa, 16.02. 13:00 9 2 13 220° SW
Sa, 16.02. 7:00 4 1 7 360° N
Sa, 16.02. 1:00 4 1 14 80° O
Fr, 15.02. 19:00 6 1 13 160° S
Fr, 15.02. 13:00 4 1 14 190° S
Ortszeit Stärke Spitze Richtung
km/h Bft. km/h Grad Sektor
So, 17.02. 10:00 0 0 7 - -
So, 17.02. 9:50 2 1 - 30° NO
So, 17.02. 9:40 4 1 - 20° N
So, 17.02. 9:30 4 1 7 30° NO
So, 17.02. 9:20 4 1 - 30° NO
So, 17.02. 9:10 4 1 - 340° N
So, 17.02. 9:00 4 1 11 360° N
So, 17.02. 8:30 7 2 11 360° N
So, 17.02. 8:00 4 1 11 10° N
So, 17.02. 7:30 7 2 11 10° N
So, 17.02. 7:00 6 1 11 360° N
Ortszeit Untergrenze Bedeckung Gattung
total tief tief mittel hoch
So, 17.02. 7:00 <30 m 8/8 0/8 - - -
So, 17.02. 1:00 9000 m 8/8 0/8 - - -
Sa, 16.02. 19:00 10500 m 8/8 0/8 - - -
Sa, 16.02. 13:00 10500 m 8/8 0/8 - - -
Sa, 16.02. 7:00 - 0/8 0/8 - - -
Sa, 16.02. 1:00 - 0/8 0/8 - - -
Fr, 15.02. 19:00 - 0/8 0/8 - - -
Fr, 15.02. 13:00 - 0/8 0/8 - - -
Ortszeit Bedeckungsgrad in Achtel und Wolkenuntergrenze
So, 17.02. 10:00 7(<30m) 8(8100m) 8(9000m)
So, 17.02. 9:50 7(<30m) 8(8100m) 8(9000m)
So, 17.02. 9:40 7(<30m) 8(8100m) 8(9000m)
So, 17.02. 9:30 8(<30m) 8(8400m) 8(9000m)
So, 17.02. 9:20 8(<30m) 8(8400m) 8(9000m)
So, 17.02. 9:10 8(<30m) 8(9000m)
So, 17.02. 9:00 8(<30m) 8(9000m)
So, 17.02. 8:30 8(<30m)
So, 17.02. 8:00 8(<30m) 8(8700m)
So, 17.02. 7:30 8(<30m) 8(9000m)
So, 17.02. 7:00 8(<30m) 8(8100m) 8(8700m)
Ortszeit Luftdruck NN (hPa) Tendenz (hPa in 3 Std.)
So, 17.02. 7:00 1026 - 0,9
So, 17.02. 1:00 1027 - 0,5
Sa, 16.02. 19:00 1027 - 0,3
Sa, 16.02. 13:00 1029 - 0,4
Sa, 16.02. 7:00 1030 - 0,3
Sa, 16.02. 1:00 1030 - 0,4
Fr, 15.02. 19:00 1030 - 0,6
Fr, 15.02. 13:00 1033 - 1,2
Ortszeit Luftdruck NN (hPa) Tendenz (hPa in 3 Std.)
So, 17.02. 10:00 1026 0,0
So, 17.02. 9:50 1026 keine Meldung
So, 17.02. 9:40 1026 keine Meldung
So, 17.02. 9:30 1026 + 0,1
So, 17.02. 9:20 1026 keine Meldung
So, 17.02. 9:10 1026 keine Meldung
So, 17.02. 9:00 1026 - 0,1
So, 17.02. 8:30 1026 - 0,1
So, 17.02. 8:00 1026 - 0,4
So, 17.02. 7:30 1026 - 0,6
So, 17.02. 7:00 1026 - 0,9
Ortszeit Schneehöhe (cm)
So, 17.02. 7:00 0
So, 17.02. 1:00 0
Sa, 16.02. 19:00 0
Sa, 16.02. 13:00 0
Sa, 16.02. 7:00 0
Sa, 16.02. 1:00 0
Fr, 15.02. 19:00 0
Fr, 15.02. 13:00 0
Ortszeit Schneehöhe (cm)
So, 17.02. 10:00 0
So, 17.02. 9:50 0
So, 17.02. 9:40 0
So, 17.02. 9:30 0
So, 17.02. 9:20 0
So, 17.02. 9:10 0
So, 17.02. 9:00 0
So, 17.02. 8:30 0
So, 17.02. 8:00 0
So, 17.02. 7:30 0
So, 17.02. 7:00 0
Link zu dieser Seite / Seite empfehlen

Das Wetter in ...